Terminal Aerodrome Forecast
Issued by NWS Austin/San Antonio, TX

Home | Current Version | Previous Version | Text Only | Print | Product List | Glossary On
Versions: 1 2 3 4 5 6 7 8 9 10 11 12 13 14 15 16 17 18 19 20 21 22 23
312
FTUS44 KEWX 282325
TAFDRT
TAF
KDRT 282325Z 2900/2924 12012G22KT P6SM VCTS SCT050CB BKN250
     FM290200 11012KT P6SM SCT050 SCT250
     FM290800 11012KT P6SM BKN010
     FM291200 12008KT 6SM BR OVC004
     FM291500 12010KT P6SM BKN012
     FM291700 14015KT P6SM SCT050=

USA.gov is the U.S. government's official web portal to all federal, state and local government web resources and services.